.
WxDataArchive / Data Records for 2008-08-08
2008-08-07 August 2008 2008-08-09

Data Records for Friday, 08 August 2008

Time	Temp	Chill	HIndex	Humid	Dewpt	 Wind 	HiWind	WindDir	Rain 	Barom 
-----	----	-----	------	-----	-----	------	------	-------	-----	----- 
00:00	63.1	63.1	63.1	79	56.5	0	1	292	0.00	29.868 
00:05	62.9	62.9	62.9	80	56.6	0	1	292	0.00	29.868 
00:10	62.7	62.7	62.7	80	56.4	0	0	---	0.00	29.871 
00:15	62.7	62.7	62.7	80	56.4	0	0	---	0.00	29.871 
00:20	62.7	62.7	62.7	81	56.8	0	0	---	0.00	29.868 
00:25	62.6	62.6	62.6	81	56.7	0	0	---	0.00	29.867 
00:30	62.4	62.4	62.4	82	56.8	0	1	292	0.00	29.869 
00:35	62.3	62.3	62.3	82	56.7	0	1	292	0.00	29.868 
00:40	62.1	62.1	62.1	83	56.9	0	1	292	0.00	29.868 
00:45	62.0	62.0	62.0	83	56.8	0	1	292	0.00	29.868 
00:50	62.0	62.0	62.0	84	57.1	0	0	---	0.00	29.869 
00:55	61.8	61.8	61.8	84	56.9	0	1	292	0.00	29.871 
01:00	61.6	61.6	61.6	84	56.7	0	1	292	0.00	29.872 
01:05	61.6	61.6	61.6	85	57.0	0	0	---	0.00	29.871 
01:10	61.5	61.5	61.5	85	56.9	0	0	---	0.00	29.870 
01:15	61.3	61.3	61.3	86	57.1	0	0	---	0.00	29.871 
01:20	61.2	61.2	61.2	86	57.0	0	1	292	0.00	29.871 
01:25	61.2	61.2	61.2	87	57.3	0	0	---	0.00	29.869 
01:30	61.2	61.2	61.2	87	57.3	0	0	---	0.00	29.865 
01:35	61.2	61.2	61.2	87	57.3	0	0	---	0.00	29.863 
01:40	61.0	61.0	61.0	87	57.1	0	0	---	0.00	29.862 
01:45	61.0	61.0	61.0	87	57.1	0	1	292	0.00	29.862 
01:50	61.0	61.0	61.0	87	57.1	0	1	292	0.00	29.862 
01:55	61.0	61.0	61.0	87	57.1	0	1	292	0.00	29.863 
02:00	61.0	61.0	61.0	88	57.4	0	0	---	0.00	29.864 
02:05	60.9	60.9	60.9	88	57.3	0	0	---	0.00	29.864 
02:10	60.9	60.9	60.9	88	57.3	0	1	292	0.00	29.864 
02:15	60.9	60.9	60.9	88	57.3	0	1	292	0.00	29.865 
02:20	60.9	60.9	60.9	88	57.3	0	1	292	0.00	29.866 
02:25	60.9	60.9	60.9	88	57.3	0	0	---	0.00	29.867 
02:30	60.7	60.7	60.7	88	57.1	0	0	---	0.00	29.866 
02:35	60.7	60.7	60.7	88	57.1	0	1	292	0.00	29.866 
02:40	60.7	60.7	60.7	88	57.1	0	0	---	0.00	29.867 
02:45	60.5	60.5	60.5	88	56.9	0	1	292	0.00	29.868 
02:50	60.5	60.5	60.5	88	56.9	0	1	292	0.00	29.869 
02:55	60.5	60.5	60.5	88	56.9	0	0	---	0.00	29.870 
03:00	60.5	60.5	60.5	88	56.9	0	0	---	0.00	29.873 
03:05	60.5	60.5	60.5	88	56.9	0	1	292	0.00	29.883 
03:10	60.4	60.4	60.4	88	56.8	0	0	---	0.00	29.884 
03:15	60.4	60.4	60.4	88	56.8	0	0	---	0.00	29.885 
03:20	60.4	60.4	60.4	89	57.1	0	0	---	0.00	29.886 
03:25	60.2	60.2	60.2	89	56.9	0	1	292	0.00	29.887 
03:30	60.2	60.2	60.2	89	56.9	0	0	---	0.00	29.889 
03:35	60.1	60.1	60.1	89	56.8	0	0	---	0.00	29.888 
03:40	60.1	60.1	60.1	89	56.8	0	0	---	0.00	29.891 
03:45	60.1	60.1	60.1	89	56.8	0	1	292	0.00	29.893 
03:50	60.1	60.1	60.1	89	56.8	0	0	---	0.00	29.895 
03:55	60.1	60.1	60.1	89	56.8	0	1	292	0.00	29.895 
04:00	60.2	60.2	60.2	88	56.6	0	1	292	0.00	29.897 
04:05	60.2	60.2	60.2	88	56.6	0	1	292	0.00	29.894 
04:10	60.2	60.2	60.2	88	56.6	0	0	---	0.00	29.895 
04:15	60.1	60.1	60.1	88	56.5	0	1	292	0.00	29.896 
04:20	60.1	60.1	60.1	88	56.5	0	0	---	0.00	29.898 
04:25	60.1	60.1	60.1	88	56.5	0	1	292	0.00	29.898 
04:30	59.9	59.9	59.9	88	56.3	0	0	---	0.00	29.902 
04:35	59.8	59.8	59.8	88	56.2	0	0	---	0.00	29.905 
04:40	59.8	59.8	59.8	88	56.2	0	0	---	0.00	29.904 
04:45	59.6	59.6	59.6	88	56.0	0	0	---	0.00	29.905 
04:50	59.5	59.5	59.5	89	56.3	0	0	---	0.00	29.906 
04:55	59.5	59.5	59.5	89	56.3	0	0	---	0.00	29.907 
05:00	59.5	59.5	59.5	89	56.3	0	0	---	0.00	29.910 
05:05	59.3	59.3	59.3	89	56.1	0	0	---	0.00	29.912 
05:10	59.2	59.2	59.2	89	56.0	0	0	---	0.00	29.912 
05:15	59.0	59.0	59.0	89	55.8	0	0	---	0.00	29.913 
05:20	59.0	59.0	59.0	89	55.8	0	1	292	0.00	29.913 
05:25	58.9	58.9	58.9	89	55.7	0	0	---	0.00	29.913 
05:30	58.9	58.9	58.9	90	56.0	0	0	---	0.00	29.915 
05:35	58.7	58.7	58.7	90	55.8	0	0	---	0.00	29.916 
05:40	58.7	58.7	58.7	90	55.8	0	0	---	0.00	29.918 
05:45	58.6	58.6	58.6	90	55.7	0	0	---	0.00	29.917 
05:50	58.6	58.6	58.6	90	55.7	0	0	---	0.00	29.918 
05:55	58.6	58.6	58.6	91	56.0	0	0	---	0.00	29.918 
06:00	58.4	58.4	58.4	91	55.8	0	0	---	0.00	29.922 
06:05	58.4	58.4	58.4	91	55.8	0	0	---	0.00	29.925 
06:10	58.6	58.6	58.6	91	56.0	0	1	292	0.00	29.929 
06:15	58.6	58.6	58.6	91	56.0	0	1	292	0.00	29.930 
06:20	58.7	58.7	58.7	91	56.1	0	1	292	0.00	29.931 
06:25	58.9	58.9	58.9	91	56.3	0	1	292	0.00	29.933 
06:30	59.0	59.0	59.0	91	56.4	0	1	292	0.00	29.934 
06:35	59.2	59.2	59.2	91	56.6	0	1	292	0.00	29.936 
06:40	59.5	59.5	59.5	90	56.6	0	1	292	0.00	29.940 
06:45	59.8	59.8	59.8	90	56.9	0	1	292	0.00	29.940 
06:50	59.9	59.9	59.9	89	56.6	0	1	292	0.00	29.942 
06:55	60.4	60.4	60.4	88	56.8	0	1	292	0.00	29.943 
07:00	60.7	60.7	60.7	87	56.8	0	1	292	0.00	29.943 
07:05	61.0	61.0	61.0	87	57.1	0	1	292	0.00	29.944 
07:10	61.5	61.5	61.5	86	57.3	0	1	292	0.00	29.945 
07:15	61.8	61.8	61.8	85	57.2	0	1	292	0.00	29.945 
07:20	62.1	62.1	62.1	84	57.2	0	1	292	0.00	29.946 
07:25	62.6	62.6	62.6	83	57.4	0	1	292	0.00	29.947 
07:30	62.9	62.9	62.9	82	57.3	0	1	292	0.00	29.945 
07:35	63.2	63.2	63.2	81	57.3	0	2	292	0.00	29.944 
07:40	63.5	63.5	63.5	80	57.2	0	1	292	0.00	29.945 
07:45	63.9	63.9	63.9	79	57.3	0	2	292	0.00	29.946 
07:50	64.0	64.0	64.0	79	57.4	1	2	292	0.00	29.948 
07:55	64.3	64.3	64.3	78	57.3	0	1	292	0.00	29.951 
08:00	64.5	64.5	64.5	77	57.1	0	1	292	0.00	29.951 
08:05	64.8	64.8	64.8	77	57.4	0	2	292	0.00	29.956 
08:10	65.2	65.2	65.2	76	57.4	0	1	292	0.00	29.956 
08:15	65.5	65.5	65.5	76	57.7	0	2	292	0.00	29.957 
08:20	66.0	66.0	66.0	75	57.8	0	2	315	0.00	29.957 
08:25	66.4	66.4	66.4	74	57.9	0	2	315	0.00	29.957 
08:30	66.4	66.4	66.4	73	57.5	1	2	315	0.00	29.958 
08:35	66.6	66.6	66.6	74	58.0	0	1	292	0.00	29.958 
08:40	66.8	66.8	66.8	73	57.9	0	2	292	0.00	29.958 
08:45	66.9	66.9	66.9	73	58.0	1	2	292	0.00	29.959 
08:50	67.3	67.3	67.3	73	58.3	1	3	292	0.00	29.959 
08:55	67.4	67.4	67.4	71	57.7	1	2	292	0.00	29.959 
09:00	67.8	67.8	67.8	71	58.0	0	3	292	0.00	29.958 
09:05	68.1	68.1	68.1	71	58.3	0	4	292	0.00	29.959 
09:10	68.6	68.6	68.6	69	58.0	1	4	135	0.00	29.960 
09:15	68.6	68.6	68.6	69	58.0	1	4	292	0.00	29.961 
09:20	68.9	68.9	68.9	67	57.5	1	2	338	0.00	29.961 
09:25	68.9	68.9	68.9	68	57.9	1	2	338	0.00	29.961 
09:30	69.1	69.1	69.1	67	57.7	1	4	0	0.00	29.963 
09:35	69.3	69.3	69.3	66	57.4	1	4	0	0.00	29.963 
09:40	69.6	69.6	69.6	66	57.7	0	2	225	0.00	29.964 
09:45	70.1	70.1	70.1	63	56.9	0	3	45	0.00	29.965 
09:50	70.4	70.4	70.4	62	56.7	1	4	90	0.00	29.965 
09:55	70.6	70.6	70.6	63	57.4	0	3	315	0.00	29.962 
10:00	70.9	70.9	70.9	63	57.7	1	3	315	0.00	29.962 
10:05	70.9	70.9	70.9	58	55.4	1	4	292	0.00	29.966 
10:10	71.3	71.3	71.3	60	56.7	1	3	22	0.00	29.967 
10:15	71.6	71.6	71.6	60	57.0	0	1	22	0.00	29.961 
10:20	72.1	72.1	72.1	61	57.9	0	3	22	0.00	29.961 
10:25	72.7	72.7	72.7	58	57.1	0	1	45	0.00	29.965 
10:30	72.5	72.5	72.5	58	56.9	1	3	0	0.00	29.962 
10:35	72.3	72.3	72.3	56	55.7	1	4	270	0.00	29.961 
10:40	72.7	72.7	72.7	58	57.1	1	2	270	0.00	29.964 
10:45	72.8	72.8	72.8	57	56.7	1	2	338	0.00	29.964 
10:50	73.0	73.0	73.0	56	56.4	0	2	0	0.00	29.961 
10:55	73.3	73.3	73.3	55	56.1	1	4	292	0.00	29.962 
11:00	73.3	73.3	73.3	56	56.6	1	4	292	0.00	29.960 
11:05	73.5	73.5	73.5	54	55.8	1	2	292	0.00	29.959 
11:10	73.5	73.5	73.5	54	55.8	1	4	270	0.00	29.960 
11:15	73.3	73.3	73.3	52	54.6	2	4	315	0.00	29.959 
11:20	73.7	73.7	73.7	56	57.0	1	3	315	0.00	29.959 
11:25	73.7	73.7	73.7	54	56.0	1	3	315	0.00	29.958 
11:30	73.3	73.3	73.3	54	55.6	1	4	338	0.00	29.959 
11:35	73.2	73.2	73.2	54	55.5	0	3	292	0.00	29.960 
11:40	73.3	73.3	73.3	53	55.1	1	2	315	0.00	29.958 
11:45	74.2	74.2	74.2	52	55.4	1	5	292	0.00	29.957 
11:50	74.6	74.6	74.6	52	55.8	1	5	338	0.00	29.956 
11:55	74.9	74.9	74.9	52	56.1	1	4	315	0.00	29.954 
12:00	74.9	74.9	74.9	53	56.6	0	2	45	0.00	29.954 
12:05	75.1	75.1	77.7	50	55.2	1	7	315	0.00	29.954 
12:10	75.4	75.4	77.8	49	54.9	1	2	315	0.00	29.954 
12:15	75.1	75.1	77.7	46	52.9	1	4	315	0.00	29.954 
12:20	74.9	74.9	74.9	52	56.1	1	3	292	0.00	29.955 
12:25	75.1	75.1	77.7	50	55.2	1	3	292	0.00	29.953 
12:30	74.6	74.6	74.6	50	54.7	1	3	292	0.00	29.951 
12:35	74.6	74.6	74.6	50	54.7	1	2	292	0.00	29.947 
12:40	74.0	74.0	74.0	51	54.7	0	2	292	0.00	29.946 
12:45	74.6	74.6	74.6	49	54.2	1	3	292	0.00	29.942 
12:50	75.8	75.8	78.0	52	56.9	1	4	90	0.00	29.941 
12:55	75.8	75.8	77.9	45	52.9	1	4	315	0.00	29.940 
13:00	75.4	75.4	77.8	52	56.5	1	4	248	0.00	29.940 
13:05	76.0	76.0	78.0	47	54.3	0	3	248	0.00	29.939 
13:10	75.3	75.3	77.7	46	53.1	1	2	292	0.00	29.941 
13:15	75.3	75.3	77.7	49	54.8	0	3	112	0.00	29.940 
13:20	75.3	75.3	77.7	46	53.1	0	2	112	0.00	29.940 
13:25	75.8	75.8	78.0	50	55.8	0	2	68	0.00	29.935 
13:30	76.5	76.5	78.2	46	54.2	0	2	0	0.00	29.934 
13:35	76.8	76.8	78.4	48	55.6	1	3	338	0.00	29.930 
13:40	77.2	77.2	78.5	43	52.9	1	3	22	0.00	29.927 
13:45	77.4	77.4	78.6	44	53.8	1	3	0	0.00	29.926 
13:50	77.2	77.2	78.4	41	51.7	1	3	315	0.00	29.926 
13:55	77.4	77.4	78.5	42	52.5	1	3	315	0.00	29.925 
14:00	77.6	77.6	78.8	46	55.2	1	3	315	0.00	29.925 
14:05	77.6	77.6	78.7	43	53.3	1	4	315	0.00	29.924 
14:10	77.9	77.9	78.9	44	54.2	1	4	292	0.00	29.925 
14:15	77.7	77.7	78.7	43	53.4	1	4	270	0.00	29.924 
14:20	77.4	77.4	78.4	40	51.2	2	9	315	0.00	29.925 
14:25	77.7	77.7	78.7	42	52.8	1	3	270	0.00	29.924 
14:30	77.9	77.9	78.8	43	53.6	1	2	315	0.00	29.921 
14:35	77.9	77.9	78.7	40	51.6	1	3	315	0.00	29.919 
14:40	78.1	78.1	78.7	39	51.1	1	4	315	0.00	29.921 
14:45	78.1	78.1	78.8	41	52.5	1	4	270	0.00	29.919 
14:50	77.6	77.6	78.6	42	52.7	0	2	270	0.00	29.921 
14:55	77.4	77.4	78.6	43	53.1	1	4	270	0.00	29.917 
15:00	77.4	77.4	78.5	41	51.8	2	5	315	0.00	29.920 
15:05	76.7	76.7	78.2	43	52.5	2	4	270	0.00	29.921 
15:10	76.5	76.5	78.1	42	51.7	1	3	315	0.00	29.920 
15:15	76.8	76.8	78.4	46	54.4	0	2	292	0.00	29.917 
15:20	77.2	77.2	78.5	45	54.2	0	3	0	0.00	29.915 
15:25	77.2	77.2	78.7	48	56.0	0	1	0	0.00	29.913 
15:30	77.2	77.2	78.6	46	54.8	0	1	0	0.00	29.911 
15:35	77.6	77.6	78.6	41	52.0	0	2	0	0.00	29.909 
15:40	77.7	77.7	78.6	41	52.1	2	4	270	0.00	29.908 
15:45	77.6	77.6	78.6	41	52.0	1	3	315	0.00	29.907 
15:50	77.0	77.0	78.4	44	53.4	0	2	315	0.00	29.908 
15:55	76.7	76.7	78.3	45	53.7	0	2	315	0.00	29.908 
16:00	76.0	76.0	78.0	45	53.1	0	1	315	0.00	29.904 
16:05	75.3	75.3	77.7	46	53.1	0	2	315	0.00	29.903 
16:10	75.1	75.1	77.7	48	54.1	0	1	315	0.00	29.902 
16:15	75.6	75.6	77.9	47	53.9	0	1	315	0.00	29.898 
16:20	76.5	76.5	78.1	43	52.3	0	2	338	0.00	29.899 
16:25	77.0	77.0	78.5	46	54.6	0	2	338	0.00	29.896 
16:30	77.4	77.4	78.6	44	53.8	0	2	338	0.00	29.897 
16:35	77.7	77.7	78.7	42	52.8	0	3	68	0.00	29.894 
16:40	77.9	77.9	78.6	38	50.2	1	4	68	0.00	29.894 
16:45	77.7	77.7	78.4	37	49.3	2	4	315	0.00	29.895 
16:50	77.6	77.6	78.4	38	50.0	2	5	315	0.00	29.896 
16:55	77.4	77.4	78.3	38	49.8	1	4	315	0.00	29.897 
17:00	77.2	77.2	78.3	39	50.3	2	4	315	0.00	29.896 
17:05	76.7	76.7	78.1	39	49.9	1	3	292	0.00	29.897 
17:10	76.3	76.3	77.9	40	50.2	1	4	315	0.00	29.897 
17:15	76.0	76.0	77.9	43	51.9	1	3	270	0.00	29.896 
17:20	75.6	75.6	77.8	43	51.5	0	2	270	0.00	29.893 
17:25	75.3	75.3	77.7	43	51.2	1	3	292	0.00	29.895 
17:30	75.1	75.1	77.6	45	52.3	0	2	292	0.00	29.893 
17:35	75.3	75.3	77.7	47	53.7	0	1	292	0.00	29.895 
17:40	75.6	75.6	77.8	45	52.7	0	2	292	0.00	29.894 
17:45	76.0	76.0	78.0	45	53.1	0	1	292	0.00	29.892 
17:50	76.1	76.1	78.0	44	52.6	0	2	292	0.00	29.893 
17:55	76.3	76.3	78.1	44	52.8	0	1	292	0.00	29.893 
18:00	76.1	76.1	78.0	44	52.6	0	2	292	0.00	29.895 
18:05	75.6	75.6	77.8	46	53.3	0	2	292	0.00	29.890 
18:10	75.3	75.3	77.7	45	52.5	0	1	292	0.00	29.889 
18:15	74.9	74.9	74.9	46	52.7	0	1	292	0.00	29.889 
18:20	74.7	74.7	74.7	47	53.1	0	1	292	0.00	29.888 
18:25	74.7	74.7	74.7	46	52.5	0	1	292	0.00	29.885 
18:30	74.9	74.9	74.9	46	52.7	0	2	292	0.00	29.887 
18:35	75.1	75.1	77.7	46	52.9	0	2	315	0.00	29.887 
18:40	75.3	75.3	77.7	45	52.5	0	1	315	0.00	29.887 
18:45	75.3	75.3	77.7	46	53.1	0	2	315	0.00	29.886 
18:50	75.1	75.1	77.7	47	53.5	0	2	315	0.00	29.887 
18:55	74.7	74.7	74.7	46	52.5	0	1	315	0.00	29.887 
19:00	74.4	74.4	74.4	47	52.8	0	1	315	0.00	29.891 
19:05	74.0	74.0	74.0	49	53.6	0	0	---	0.00	29.887 
19:10	73.5	73.5	73.5	49	53.2	0	2	315	0.00	29.886 
19:15	73.2	73.2	73.2	50	53.4	0	1	315	0.00	29.888 
19:20	73.0	73.0	73.0	51	53.8	0	0	---	0.00	29.885 
19:25	72.7	72.7	72.7	52	54.0	0	0	---	0.00	29.885 
19:30	72.5	72.5	72.5	53	54.4	0	0	---	0.00	29.889 
19:35	72.1	72.1	72.1	54	54.5	0	0	---	0.00	29.892 
19:40	72.0	72.0	72.0	53	53.9	0	1	315	0.00	29.894 
19:45	72.0	72.0	72.0	53	53.9	0	1	315	0.00	29.895 
19:50	72.0	72.0	72.0	53	53.9	0	1	315	0.00	29.895 
19:55	72.0	72.0	72.0	53	53.9	0	2	315	0.00	29.894 
20:00	72.0	72.0	72.0	53	53.9	0	1	315	0.00	29.894 
20:05	71.8	71.8	71.8	54	54.2	0	1	315	0.00	29.891 
20:10	71.5	71.5	71.5	54	54.0	0	1	315	0.00	29.891 
20:15	71.3	71.3	71.3	54	53.8	0	1	315	0.00	29.893 
20:20	70.9	70.9	70.9	55	53.9	0	1	315	0.00	29.893 
20:25	70.6	70.6	70.6	56	54.1	0	2	315	0.00	29.892 
20:30	70.4	70.4	70.4	56	53.9	0	1	315	0.00	29.893 
20:35	70.1	70.1	70.1	56	53.7	0	1	315	0.00	29.893 
20:40	69.9	69.9	69.9	56	53.5	0	1	315	0.00	29.893 
20:45	69.6	69.6	69.6	57	53.7	0	1	315	0.00	29.893 
20:50	69.4	69.4	69.4	58	54.0	0	1	315	0.00	29.896 
20:55	69.1	69.1	69.1	58	53.7	0	1	315	0.00	29.897 
21:00	68.8	68.8	68.8	59	53.9	0	1	315	0.00	29.897 
21:05	68.6	68.6	68.6	59	53.7	0	1	315	0.00	29.896 
21:10	68.3	68.3	68.3	60	53.9	0	0	---	0.00	29.900 
21:15	68.1	68.1	68.1	60	53.7	0	1	315	0.00	29.904 
21:20	67.8	67.8	67.8	61	53.9	0	0	---	0.00	29.903 
21:25	67.6	67.6	67.6	62	54.1	0	0	---	0.00	29.905 
21:30	67.3	67.3	67.3	62	53.8	0	0	---	0.00	29.906 
21:35	67.1	67.1	67.1	62	53.6	0	1	315	0.00	29.907 
21:40	67.1	67.1	67.1	63	54.1	0	1	315	0.00	29.907 
21:45	66.9	66.9	66.9	63	53.9	0	1	315	0.00	29.904 
21:50	66.8	66.8	66.8	63	53.8	0	0	---	0.00	29.902 
21:55	66.4	66.4	66.4	64	53.8	0	1	315	0.00	29.904 
22:00	66.3	66.3	66.3	65	54.2	0	0	---	0.00	29.908 
22:05	66.0	66.0	66.0	65	53.9	0	0	---	0.00	29.908 
22:10	65.8	65.8	65.8	65	53.7	0	0	---	0.00	29.908 
22:15	65.6	65.6	65.6	66	53.9	0	1	315	0.00	29.906 
22:20	65.5	65.5	65.5	66	53.8	0	1	315	0.00	29.905 
22:25	65.3	65.3	65.3	67	54.1	0	0	---	0.00	29.903 
22:30	65.2	65.2	65.2	67	54.0	0	0	---	0.00	29.902 
22:35	64.8	64.8	64.8	68	54.0	0	1	315	0.00	29.902 
22:40	64.7	64.7	64.7	68	53.9	0	0	---	0.00	29.904 
22:45	64.3	64.3	64.3	69	53.9	0	0	---	0.00	29.905 
22:50	64.0	64.0	64.0	70	54.0	0	0	---	0.00	29.904 
22:55	63.7	63.7	63.7	71	54.1	0	0	---	0.00	29.901 
23:00	63.2	63.2	63.2	72	54.0	0	0	---	0.00	29.900 
23:05	62.9	62.9	62.9	72	53.7	0	0	---	0.00	29.897 
23:10	62.6	62.6	62.6	73	53.8	0	0	---	0.00	29.894 
23:15	62.3	62.3	62.3	73	53.5	0	0	---	0.00	29.896 
23:20	62.0	62.0	62.0	75	54.0	0	0	---	0.00	29.895 
23:25	61.6	61.6	61.6	76	54.0	0	0	---	0.00	29.895 
23:30	61.3	61.3	61.3	76	53.7	0	0	---	0.00	29.894 
23:35	61.2	61.2	61.2	77	53.9	0	0	---	0.00	29.894 
23:40	60.9	60.9	60.9	78	54.0	0	0	---	0.00	29.895 
23:45	60.7	60.7	60.7	79	54.1	0	0	---	0.00	29.896 
23:50	60.5	60.5	60.5	79	54.0	0	0	---	0.00	29.897 
23:55	60.4	60.4	60.4	80	54.2	0	0	---	0.00	29.899 

CoCoRaHS
IN-AL-39
A2 Web Hosting
Creative Commons License
GoDaddy
Look for:

loaded 2017-12-12 14:34:55 • last modified 2010-11-18 10:43:29
Privacy PolicyDisclaimer
• wx.awcolley.com is powered by PmWiki v.2002016 •
• all content (unless otherwise noted) © 2017 A W Colley